PWSweather.com
Personal Weather Stations
Station Observations
KB2SBX
Sugarloaf, Sugarloaf, PA 18249

SugarloafSugarloaf, PA 18249

Lat: 41.0126685, Lon: -76.1082041

Elevation: 1030

Station Type: WS-2080

http://sugarloafpaweather.webng.com/weather.shtml

Latest ConditionsUpdated 8:40:06 PM EDT Wednesday, Apr 23, 2014
Currently Today's Max Today's Min Today's Average
Temperature 41.9°F5.5°C 50.9°F10.5°C 41.9°F5.5°C 45.5°F7.5°C
Dew Point 29.0°F-1.7°C 40.8°F4.9°C 28.1°F-2.2°C 34.5°F1.4°C
Winds 4.0 mph NNE6.4 kmh NNE 11.0 mph WSW17.7 kmh WSW - 3.5 mph 5.6 kmh
Wind Gusts 8.0 mph12.9 kmh 22.0 mph35.4 kmh - -
Humidity 60% 76% 54% 66%
Pressure 29.91 in1012.9 mb 29.91 in1012.9 mb 29.61 in1002.7 mb -
Hour Temp Dew Point Humidity Winds Wind Gusts Pressure Precip Precip Rate Daily Precip Total
08:40 PM 41.9°F5.5°C 29.0°F-1.7°C 60% 4.0 mph NNE6.4 kmh NNE 8.0 mph12.9 kmh 29.91 in1012.9 mb 0.00 in0.0 mm 0.00 in/hr0.0 mm/hr 0.00 in0.0 mm
08:35 PM 42.0°F5.6°C 29.2°F-1.6°C 60% 5.0 mph WNW8.0 kmh WNW 10.0 mph16.1 kmh 29.91 in1012.9 mb 0.00 in0.0 mm 0.00 in/hr0.0 mm/hr 0.00 in0.0 mm
08:30 PM 42.2°F5.7°C 29.3°F-1.5°C 60% 9.0 mph SSW14.5 kmh SSW 13.0 mph20.9 kmh 29.90 in1012.5 mb 0.00 in0.0 mm 0.00 in/hr0.0 mm/hr 0.00 in0.0 mm
08:25 PM 42.4°F5.8°C 29.1°F-1.6°C 59% 6.0 mph WSW9.7 kmh WSW 10.0 mph16.1 kmh 29.89 in1012.2 mb 0.00 in0.0 mm 0.00 in/hr0.0 mm/hr 0.00 in0.0 mm
08:20 PM 42.6°F5.9°C 28.8°F-1.8°C 58% 2.0 mph WNW3.2 kmh WNW 11.0 mph17.7 kmh 29.89 in1012.2 mb 0.00 in0.0 mm 0.00 in/hr0.0 mm/hr 0.00 in0.0 mm
08:15 PM 42.8°F6.0°C 28.6°F-1.9°C 57% 9.0 mph WSW14.5 kmh WSW 13.0 mph20.9 kmh 29.89 in1012.2 mb 0.00 in0.0 mm 0.00 in/hr0.0 mm/hr 0.00 in0.0 mm
08:10 PM 42.9°F6.1°C 28.3°F-2.1°C 56% 8.0 mph ENE12.9 kmh ENE 13.0 mph20.9 kmh 29.88 in1011.9 mb 0.00 in0.0 mm 0.00 in/hr0.0 mm/hr 0.00 in0.0 mm
08:05 PM 43.3°F6.3°C 28.7°F-1.8°C 56% 5.0 mph ESE8.0 kmh ESE 11.0 mph17.7 kmh 29.88 in1011.9 mb 0.00 in0.0 mm 0.00 in/hr0.0 mm/hr 0.00 in0.0 mm
08:00 PM 43.3°F6.3°C 28.2°F-2.1°C 55% 2.0 mph WSW3.2 kmh WSW 5.0 mph8.0 kmh 29.88 in1011.9 mb 0.00 in0.0 mm 0.00 in/hr0.0 mm/hr 0.00 in0.0 mm
07:55 PM 43.5°F6.4°C 28.4°F-2.0°C 55% 8.0 mph NNE12.9 kmh NNE 16.0 mph25.7 kmh 29.88 in1011.9 mb 0.00 in0.0 mm 0.00 in/hr0.0 mm/hr 0.00 in0.0 mm
07:50 PM 43.5°F6.4°C 28.4°F-2.0°C 55% 4.0 mph NNW6.4 kmh NNW 8.0 mph12.9 kmh 29.88 in1011.9 mb 0.00 in0.0 mm 0.00 in/hr0.0 mm/hr 0.00 in0.0 mm
07:45 PM 43.5°F6.4°C 28.4°F-2.0°C 55% 3.0 mph NNW4.8 kmh NNW 8.0 mph12.9 kmh 29.87 in1011.5 mb 0.00 in0.0 mm 0.00 in/hr0.0 mm/hr 0.00 in0.0 mm
07:40 PM 43.7°F6.5°C 28.6°F-1.9°C 55% 4.0 mph WNW6.4 kmh WNW 8.0 mph12.9 kmh 29.87 in1011.5 mb 0.00 in0.0 mm 0.00 in/hr0.0 mm/hr 0.00 in0.0 mm
07:35 PM 43.7°F6.5°C 28.1°F-2.2°C 54% 4.0 mph NNE6.4 kmh NNE 9.0 mph14.5 kmh 29.87 in1011.5 mb 0.00 in0.0 mm 0.00 in/hr0.0 mm/hr 0.00 in0.0 mm
07:30 PM 43.7°F6.5°C 28.1°F-2.2°C 54% 2.0 mph WSW3.2 kmh WSW 11.0 mph17.7 kmh 29.87 in1011.5 mb 0.00 in0.0 mm 0.00 in/hr0.0 mm/hr 0.00 in0.0 mm
07:25 PM 43.8°F6.6°C 28.3°F-2.1°C 54% 6.0 mph SSW9.7 kmh SSW 18.0 mph29.0 kmh 29.86 in1011.2 mb 0.00 in0.0 mm 0.00 in/hr0.0 mm/hr 0.00 in0.0 mm
07:20 PM 44.0°F6.7°C 28.9°F-1.7°C 55% 8.0 mph WNW12.9 kmh WNW 11.0 mph17.7 kmh 29.86 in1011.2 mb 0.00 in0.0 mm 0.00 in/hr0.0 mm/hr 0.00 in0.0 mm
07:15 PM 44.2°F6.8°C 29.1°F-1.6°C 55% 5.0 mph NNW8.0 kmh NNW 18.0 mph29.0 kmh 29.86 in1011.2 mb 0.00 in0.0 mm 0.00 in/hr0.0 mm/hr 0.00 in0.0 mm
07:10 PM 44.2°F6.8°C 29.9°F-1.2°C 57% 4.0 mph NW6.4 kmh NW 15.0 mph24.1 kmh 29.86 in1011.2 mb 0.00 in0.0 mm 0.00 in/hr0.0 mm/hr 0.00 in0.0 mm
07:05 PM 44.4°F6.9°C 30.5°F-0.8°C 58% 6.0 mph NNW9.7 kmh NNW 11.0 mph17.7 kmh 29.86 in1011.2 mb 0.00 in0.0 mm 0.00 in/hr0.0 mm/hr 0.00 in0.0 mm
07:00 PM 44.6°F7.0°C 30.3°F-0.9°C 57% 6.0 mph WNW9.7 kmh WNW 11.0 mph17.7 kmh 29.85 in1010.8 mb 0.00 in0.0 mm 0.00 in/hr0.0 mm/hr 0.00 in0.0 mm
06:55 PM 44.6°F7.0°C 30.3°F-0.9°C 57% 6.0 mph NW9.7 kmh NW 9.0 mph14.5 kmh 29.85 in1010.8 mb 0.00 in0.0 mm 0.00 in/hr0.0 mm/hr 0.00 in0.0 mm
06:50 PM 44.7°F7.1°C 30.0°F-1.1°C 56% 4.0 mph WNW6.4 kmh WNW 15.0 mph24.1 kmh 29.85 in1010.8 mb 0.00 in0.0 mm 0.00 in/hr0.0 mm/hr 0.00 in0.0 mm
06:45 PM 44.9°F7.2°C 30.2°F-1.0°C 56% 3.0 mph NNE4.8 kmh NNE 14.0 mph22.5 kmh 29.84 in1010.5 mb 0.00 in0.0 mm 0.00 in/hr0.0 mm/hr 0.00 in0.0 mm
06:40 PM 45.5°F7.5°C 31.1°F-0.5°C 57% 6.0 mph WSW9.7 kmh WSW 10.0 mph16.1 kmh 29.83 in1010.2 mb 0.00 in0.0 mm 0.00 in/hr0.0 mm/hr 0.00 in0.0 mm
06:35 PM 45.6°F7.6°C 31.3°F-0.4°C 57% 5.0 mph NNE8.0 kmh NNE 11.0 mph17.7 kmh 29.83 in1010.2 mb 0.00 in0.0 mm 0.00 in/hr0.0 mm/hr 0.00 in0.0 mm
06:30 PM 46.0°F7.8°C 32.0°F0.0°C 58% 4.0 mph NNW6.4 kmh NNW 21.0 mph33.8 kmh 29.83 in1010.2 mb 0.00 in0.0 mm 0.00 in/hr0.0 mm/hr 0.00 in0.0 mm
06:25 PM 46.4°F8.0°C 32.0°F0.0°C 57% 7.0 mph NNE11.3 kmh NNE 16.0 mph25.7 kmh 29.83 in1010.2 mb 0.00 in0.0 mm 0.00 in/hr0.0 mm/hr 0.00 in0.0 mm
06:20 PM 46.7°F8.2°C 32.3°F0.2°C 57% 6.0 mph ENE9.7 kmh ENE 10.0 mph16.1 kmh 29.82 in1009.8 mb 0.00 in0.0 mm 0.00 in/hr0.0 mm/hr 0.00 in0.0 mm
06:15 PM 47.1°F8.4°C 32.6°F0.3°C 57% 6.0 mph NNE9.7 kmh NNE 12.0 mph19.3 kmh 29.82 in1009.8 mb 0.00 in0.0 mm 0.00 in/hr0.0 mm/hr 0.00 in0.0 mm
06:10 PM 47.4°F8.6°C 33.4°F0.8°C 58% 7.0 mph ENE11.3 kmh ENE 10.0 mph16.1 kmh 29.81 in1009.5 mb 0.00 in0.0 mm 0.00 in/hr0.0 mm/hr 0.00 in0.0 mm
06:05 PM 48.0°F8.9°C 33.5°F0.8°C 57% 2.0 mph SSW3.2 kmh SSW 4.0 mph6.4 kmh 29.81 in1009.5 mb 0.00 in0.0 mm 0.00 in/hr0.0 mm/hr 0.00 in0.0 mm
06:00 PM 48.0°F8.9°C 33.5°F0.8°C 57% 3.0 mph SSE4.8 kmh SSE 5.0 mph8.0 kmh 29.80 in1009.1 mb 0.00 in0.0 mm 0.00 in/hr0.0 mm/hr 0.00 in0.0 mm
05:55 PM 48.2°F9.0°C 33.6°F0.9°C 57% 6.0 mph SSE9.7 kmh SSE 10.0 mph16.1 kmh 29.81 in1009.5 mb 0.00 in0.0 mm 0.00 in/hr0.0 mm/hr 0.00 in0.0 mm
05:50 PM 48.3°F9.1°C 33.8°F1.0°C 57% 3.0 mph SSE4.8 kmh SSE 8.0 mph12.9 kmh 29.80 in1009.1 mb 0.00 in0.0 mm 0.00 in/hr0.0 mm/hr 0.00 in0.0 mm
05:45 PM 48.5°F9.2°C 33.5°F0.8°C 56% 5.0 mph WSW8.0 kmh WSW 16.0 mph25.7 kmh 29.80 in1009.1 mb 0.00 in0.0 mm 0.00 in/hr0.0 mm/hr 0.00 in0.0 mm
05:40 PM 49.1°F9.5°C 34.0°F1.1°C 56% 8.0 mph SW12.9 kmh SW 11.0 mph17.7 kmh 29.80 in1009.1 mb 0.00 in0.0 mm 0.00 in/hr0.0 mm/hr 0.00 in0.0 mm
05:35 PM 49.2°F9.6°C 34.6°F1.4°C 57% 5.0 mph WSW8.0 kmh WSW 11.0 mph17.7 kmh 29.80 in1009.1 mb 0.00 in0.0 mm 0.00 in/hr0.0 mm/hr 0.00 in0.0 mm
05:30 PM 48.9°F9.4°C 34.7°F1.5°C 58% 4.0 mph WNW6.4 kmh WNW 10.0 mph16.1 kmh 29.79 in1008.8 mb 0.00 in0.0 mm 0.00 in/hr0.0 mm/hr 0.00 in0.0 mm
05:25 PM 48.5°F9.2°C 34.0°F1.1°C 57% 4.0 mph ENE6.4 kmh ENE 8.0 mph12.9 kmh 29.80 in1009.1 mb 0.00 in0.0 mm 0.00 in/hr0.0 mm/hr 0.00 in0.0 mm
05:20 PM 48.0°F8.9°C 33.9°F1.1°C 58% 1.0 mph SSE1.6 kmh SSE 8.0 mph12.9 kmh 29.79 in1008.8 mb 0.00 in0.0 mm 0.00 in/hr0.0 mm/hr 0.00 in0.0 mm
05:15 PM 47.8°F8.8°C 33.7°F0.9°C 58% 4.0 mph WSW6.4 kmh WSW 9.0 mph14.5 kmh 29.80 in1009.1 mb 0.00 in0.0 mm 0.00 in/hr0.0 mm/hr 0.00 in0.0 mm
05:10 PM 48.0°F8.9°C 33.9°F1.1°C 58% 5.0 mph SSE8.0 kmh SSE 13.0 mph20.9 kmh 29.79 in1008.8 mb 0.00 in0.0 mm 0.00 in/hr0.0 mm/hr 0.00 in0.0 mm
05:05 PM 48.0°F8.9°C 33.9°F1.1°C 58% 5.0 mph NNE8.0 kmh NNE 10.0 mph16.1 kmh 29.80 in1009.1 mb 0.00 in0.0 mm 0.00 in/hr0.0 mm/hr 0.00 in0.0 mm
05:00 PM 48.3°F9.1°C 33.8°F1.0°C 57% 7.0 mph SSW11.3 kmh SSW 15.0 mph24.1 kmh 29.79 in1008.8 mb 0.00 in0.0 mm 0.00 in/hr0.0 mm/hr 0.00 in0.0 mm
04:55 PM 48.5°F9.2°C 33.5°F0.8°C 56% 5.0 mph NNW8.0 kmh NNW 8.0 mph12.9 kmh 29.79 in1008.8 mb 0.00 in0.0 mm 0.00 in/hr0.0 mm/hr 0.00 in0.0 mm
04:50 PM 48.5°F9.2°C 33.5°F0.8°C 56% 2.0 mph WNW3.2 kmh WNW 8.0 mph12.9 kmh 29.79 in1008.8 mb 0.00 in0.0 mm 0.00 in/hr0.0 mm/hr 0.00 in0.0 mm
04:45 PM 48.5°F9.2°C 34.0°F1.1°C 57% 4.0 mph ENE6.4 kmh ENE 10.0 mph16.1 kmh 29.79 in1008.8 mb 0.00 in0.0 mm 0.00 in/hr0.0 mm/hr 0.00 in0.0 mm
04:40 PM 48.7°F9.3°C 33.7°F0.9°C 56% 3.0 mph SSW4.8 kmh SSW 7.0 mph11.3 kmh 29.78 in1008.5 mb 0.00 in0.0 mm 0.00 in/hr0.0 mm/hr 0.00 in0.0 mm
04:35 PM 49.1°F9.5°C 34.5°F1.4°C 57% 8.0 mph WNW12.9 kmh WNW 10.0 mph16.1 kmh 29.79 in1008.8 mb 0.00 in0.0 mm 0.00 in/hr0.0 mm/hr 0.00 in0.0 mm
04:30 PM 49.1°F9.5°C 34.5°F1.4°C 57% 2.0 mph SSW3.2 kmh SSW 7.0 mph11.3 kmh 29.78 in1008.5 mb 0.00 in0.0 mm 0.00 in/hr0.0 mm/hr 0.00 in0.0 mm
04:25 PM 49.1°F9.5°C 34.5°F1.4°C 57% 4.0 mph ESE6.4 kmh ESE 11.0 mph17.7 kmh 29.77 in1008.1 mb 0.00 in0.0 mm 0.00 in/hr0.0 mm/hr 0.00 in0.0 mm
04:20 PM 49.1°F9.5°C 34.9°F1.6°C 58% 1.0 mph WNW1.6 kmh WNW 6.0 mph9.7 kmh 29.78 in1008.5 mb 0.00 in0.0 mm 0.00 in/hr0.0 mm/hr 0.00 in0.0 mm
04:15 PM 49.2°F9.6°C 35.5°F1.9°C 59% 4.0 mph WNW6.4 kmh WNW 8.0 mph12.9 kmh 29.77 in1008.1 mb 0.00 in0.0 mm 0.00 in/hr0.0 mm/hr 0.00 in0.0 mm
04:10 PM 49.1°F9.5°C 34.9°F1.6°C 58% 3.0 mph SSE4.8 kmh SSE 7.0 mph11.3 kmh 29.77 in1008.1 mb 0.00 in0.0 mm 0.00 in/hr0.0 mm/hr 0.00 in0.0 mm
04:05 PM 49.4°F9.7°C 34.8°F1.6°C 57% 4.0 mph ESE6.4 kmh ESE 7.0 mph11.3 kmh 29.77 in1008.1 mb 0.00 in0.0 mm 0.00 in/hr0.0 mm/hr 0.00 in0.0 mm
04:00 PM 49.6°F9.8°C 35.0°F1.7°C 57% 4.0 mph NNW6.4 kmh NNW 14.0 mph22.5 kmh 29.77 in1008.1 mb 0.00 in0.0 mm 0.00 in/hr0.0 mm/hr 0.00 in0.0 mm
03:55 PM 49.8°F9.9°C 35.2°F1.8°C 57% 4.0 mph WNW6.4 kmh WNW 8.0 mph12.9 kmh 29.77 in1008.1 mb 0.00 in0.0 mm 0.00 in/hr0.0 mm/hr 0.00 in0.0 mm
03:50 PM 50.0°F10.0°C 35.3°F1.8°C 57% 5.0 mph SSW8.0 kmh SSW 9.0 mph14.5 kmh 29.77 in1008.1 mb 0.00 in0.0 mm 0.00 in/hr0.0 mm/hr 0.00 in0.0 mm
03:45 PM 50.0°F10.0°C 35.8°F2.1°C 58% 5.0 mph SSW8.0 kmh SSW 7.0 mph11.3 kmh 29.77 in1008.1 mb 0.00 in0.0 mm 0.00 in/hr0.0 mm/hr 0.00 in0.0 mm
03:40 PM 50.1°F10.1°C 35.0°F1.7°C 56% 4.0 mph WSW6.4 kmh WSW 6.0 mph9.7 kmh 29.77 in1008.1 mb 0.00 in0.0 mm 0.00 in/hr0.0 mm/hr 0.00 in0.0 mm
03:35 PM 50.5°F10.3°C 35.4°F1.9°C 56% 7.0 mph ENE11.3 kmh ENE 13.0 mph20.9 kmh 29.77 in1008.1 mb 0.00 in0.0 mm 0.00 in/hr0.0 mm/hr 0.00 in0.0 mm
03:30 PM 50.9°F10.5°C 36.6°F2.6°C 58% 4.0 mph NNE6.4 kmh NNE 8.0 mph12.9 kmh 29.76 in1007.8 mb 0.00 in0.0 mm 0.00 in/hr0.0 mm/hr 0.00 in0.0 mm
03:25 PM 50.9°F10.5°C 37.0°F2.8°C 59% 4.0 mph SSW6.4 kmh SSW 8.0 mph12.9 kmh 29.76 in1007.8 mb 0.00 in0.0 mm 0.00 in/hr0.0 mm/hr 0.00 in0.0 mm
03:20 PM 50.3°F10.2°C 36.5°F2.5°C 59% 4.0 mph SSW6.4 kmh SSW 8.0 mph12.9 kmh 29.77 in1008.1 mb 0.00 in0.0 mm 0.00 in/hr0.0 mm/hr 0.00 in0.0 mm
03:15 PM 50.1°F10.1°C 36.4°F2.4°C 59% 4.0 mph WSW6.4 kmh WSW 10.0 mph16.1 kmh 29.76 in1007.8 mb 0.00 in0.0 mm 0.00 in/hr0.0 mm/hr 0.00 in0.0 mm
03:10 PM 49.8°F9.9°C 36.4°F2.4°C 60% 3.0 mph ESE4.8 kmh ESE 8.0 mph12.9 kmh 29.76 in1007.8 mb 0.00 in0.0 mm 0.00 in/hr0.0 mm/hr 0.00 in0.0 mm
03:05 PM 49.1°F9.5°C 35.8°F2.1°C 60% 4.0 mph NNW6.4 kmh NNW 9.0 mph14.5 kmh 29.77 in1008.1 mb 0.00 in0.0 mm 0.00 in/hr0.0 mm/hr 0.00 in0.0 mm
03:00 PM 49.2°F9.6°C 35.9°F2.2°C 60% 6.0 mph WNW9.7 kmh WNW 16.0 mph25.7 kmh 29.77 in1008.1 mb 0.00 in0.0 mm 0.00 in/hr0.0 mm/hr 0.00 in0.0 mm
02:55 PM 49.4°F9.7°C 36.5°F2.5°C 61% 8.0 mph WNW12.9 kmh WNW 11.0 mph17.7 kmh 29.76 in1007.8 mb 0.00 in0.0 mm 0.00 in/hr0.0 mm/hr 0.00 in0.0 mm
02:50 PM 49.1°F9.5°C 36.2°F2.3°C 61% 8.0 mph ENE12.9 kmh ENE 13.0 mph20.9 kmh 29.76 in1007.8 mb 0.00 in0.0 mm 0.00 in/hr0.0 mm/hr 0.00 in0.0 mm
02:45 PM 49.1°F9.5°C 36.2°F2.3°C 61% 7.0 mph NNW11.3 kmh NNW 10.0 mph16.1 kmh 29.75 in1007.5 mb 0.00 in0.0 mm 0.00 in/hr0.0 mm/hr 0.00 in0.0 mm
02:40 PM 49.1°F9.5°C 36.2°F2.3°C 61% 3.0 mph WSW4.8 kmh WSW 7.0 mph11.3 kmh 29.76 in1007.8 mb 0.00 in0.0 mm 0.00 in/hr0.0 mm/hr 0.00 in0.0 mm
02:35 PM 49.1°F9.5°C 35.8°F2.1°C 60% 4.0 mph NNW6.4 kmh NNW 22.0 mph35.4 kmh 29.76 in1007.8 mb 0.00 in0.0 mm 0.00 in/hr0.0 mm/hr 0.00 in0.0 mm
02:30 PM 49.1°F9.5°C 36.2°F2.3°C 61% 4.0 mph WNW6.4 kmh WNW 9.0 mph14.5 kmh 29.76 in1007.8 mb 0.00 in0.0 mm 0.00 in/hr0.0 mm/hr 0.00 in0.0 mm
02:25 PM 49.1°F9.5°C 36.2°F2.3°C 61% 6.0 mph SSW9.7 kmh SSW 11.0 mph17.7 kmh 29.76 in1007.8 mb 0.00 in0.0 mm 0.00 in/hr0.0 mm/hr 0.00 in0.0 mm
02:20 PM 48.7°F9.3°C 35.8°F2.1°C 61% 6.0 mph SSW9.7 kmh SSW 11.0 mph17.7 kmh 29.76 in1007.8 mb 0.00 in0.0 mm 0.00 in/hr0.0 mm/hr 0.00 in0.0 mm
02:15 PM 48.7°F9.3°C 35.8°F2.1°C 61% 2.0 mph ENE3.2 kmh ENE 9.0 mph14.5 kmh 29.76 in1007.8 mb 0.00 in0.0 mm 0.00 in/hr0.0 mm/hr 0.00 in0.0 mm
02:10 PM 48.7°F9.3°C 35.8°F2.1°C 61% 5.0 mph WNW8.0 kmh WNW 8.0 mph12.9 kmh 29.76 in1007.8 mb 0.00 in0.0 mm 0.00 in/hr0.0 mm/hr 0.00 in0.0 mm
02:05 PM 48.5°F9.2°C 36.1°F2.3°C 62% 4.0 mph NNE6.4 kmh NNE 5.0 mph8.0 kmh 29.76 in1007.8 mb 0.00 in0.0 mm 0.00 in/hr0.0 mm/hr 0.00 in0.0 mm
02:00 PM 48.5°F9.2°C 35.7°F2.1°C 61% 2.0 mph NNE3.2 kmh NNE 6.0 mph9.7 kmh 29.75 in1007.5 mb 0.00 in0.0 mm 0.00 in/hr0.0 mm/hr 0.00 in0.0 mm
01:55 PM 48.7°F9.3°C 36.3°F2.4°C 62% 11.0 mph WSW17.7 kmh WSW 17.0 mph27.4 kmh 29.75 in1007.5 mb 0.00 in0.0 mm 0.00 in/hr0.0 mm/hr 0.00 in0.0 mm
01:50 PM 48.5°F9.2°C 36.5°F2.5°C 63% 3.0 mph NNW4.8 kmh NNW 7.0 mph11.3 kmh 29.76 in1007.8 mb 0.00 in0.0 mm 0.00 in/hr0.0 mm/hr 0.00 in0.0 mm
01:45 PM 48.3°F9.1°C 36.3°F2.4°C 63% 2.0 mph ESE3.2 kmh ESE 6.0 mph9.7 kmh 29.75 in1007.5 mb 0.00 in0.0 mm 0.00 in/hr0.0 mm/hr 0.00 in0.0 mm
01:40 PM 48.2°F9.0°C 35.7°F2.1°C 62% 3.0 mph WSW4.8 kmh WSW 9.0 mph14.5 kmh 29.75 in1007.5 mb 0.00 in0.0 mm 0.00 in/hr0.0 mm/hr 0.00 in0.0 mm
01:35 PM 48.2°F9.0°C 35.7°F2.1°C 62% 4.0 mph WNW6.4 kmh WNW 8.0 mph12.9 kmh 29.76 in1007.8 mb 0.00 in0.0 mm 0.00 in/hr0.0 mm/hr 0.00 in0.0 mm
01:30 PM 48.0°F8.9°C 36.4°F2.4°C 64% 6.0 mph ENE9.7 kmh ENE 10.0 mph16.1 kmh 29.76 in1007.8 mb 0.00 in0.0 mm 0.00 in/hr0.0 mm/hr 0.00 in0.0 mm
01:25 PM 48.0°F8.9°C 36.4°F2.4°C 64% 4.0 mph WSW6.4 kmh WSW 6.0 mph9.7 kmh 29.75 in1007.5 mb 0.00 in0.0 mm 0.00 in/hr0.0 mm/hr 0.00 in0.0 mm
01:20 PM 47.8°F8.8°C 35.8°F2.1°C 63% 3.0 mph WNW4.8 kmh WNW 9.0 mph14.5 kmh 29.75 in1007.5 mb 0.00 in0.0 mm 0.00 in/hr0.0 mm/hr 0.00 in0.0 mm
01:15 PM 48.2°F9.0°C 35.7°F2.1°C 62% 2.0 mph NNE3.2 kmh NNE 9.0 mph14.5 kmh 29.75 in1007.5 mb 0.00 in0.0 mm 0.00 in/hr0.0 mm/hr 0.00 in0.0 mm
01:10 PM 48.3°F9.1°C 36.3°F2.4°C 63% 5.0 mph WNW8.0 kmh WNW 10.0 mph16.1 kmh 29.75 in1007.5 mb 0.00 in0.0 mm 0.00 in/hr0.0 mm/hr 0.00 in0.0 mm
01:05 PM 48.2°F9.0°C 36.2°F2.3°C 63% 2.0 mph SSE3.2 kmh SSE 5.0 mph8.0 kmh 29.74 in1007.1 mb 0.00 in0.0 mm 0.00 in/hr0.0 mm/hr 0.00 in0.0 mm
01:00 PM 48.0°F8.9°C 36.4°F2.4°C 64% 3.0 mph SSW4.8 kmh SSW 10.0 mph16.1 kmh 29.75 in1007.5 mb 0.00 in0.0 mm 0.00 in/hr0.0 mm/hr 0.00 in0.0 mm
12:55 PM 48.2°F9.0°C 36.2°F2.3°C 63% 2.0 mph SSE3.2 kmh SSE 11.0 mph17.7 kmh 29.74 in1007.1 mb 0.00 in0.0 mm 0.00 in/hr0.0 mm/hr 0.00 in0.0 mm
12:50 PM 48.2°F9.0°C 36.6°F2.6°C 64% 10.0 mph NNW16.1 kmh NNW 11.0 mph17.7 kmh 29.74 in1007.1 mb 0.00 in0.0 mm 0.00 in/hr0.0 mm/hr 0.00 in0.0 mm
12:45 PM 47.6°F8.7°C 36.4°F2.4°C 65% 2.0 mph WNW3.2 kmh WNW 6.0 mph9.7 kmh 29.74 in1007.1 mb 0.00 in0.0 mm 0.00 in/hr0.0 mm/hr 0.00 in0.0 mm
12:40 PM 47.3°F8.5°C 36.5°F2.5°C 66% 4.0 mph WSW6.4 kmh WSW 7.0 mph11.3 kmh 29.75 in1007.5 mb 0.00 in0.0 mm 0.00 in/hr0.0 mm/hr 0.00 in0.0 mm
12:35 PM 47.1°F8.4°C 36.3°F2.4°C 66% 3.0 mph WSW4.8 kmh WSW 4.0 mph6.4 kmh 29.75 in1007.5 mb 0.00 in0.0 mm 0.00 in/hr0.0 mm/hr 0.00 in0.0 mm
12:30 PM 46.9°F8.3°C 35.7°F2.1°C 65% 1.0 mph NNW1.6 kmh NNW 6.0 mph9.7 kmh 29.75 in1007.5 mb 0.00 in0.0 mm 0.00 in/hr0.0 mm/hr 0.00 in0.0 mm
12:25 PM 47.1°F8.4°C 35.9°F2.2°C 65% 4.0 mph NNW6.4 kmh NNW 8.0 mph12.9 kmh 29.75 in1007.5 mb 0.00 in0.0 mm 0.00 in/hr0.0 mm/hr 0.00 in0.0 mm
12:20 PM 47.1°F8.4°C 35.9°F2.2°C 65% 7.0 mph WSW11.3 kmh WSW 8.0 mph12.9 kmh 29.75 in1007.5 mb 0.00 in0.0 mm 0.00 in/hr0.0 mm/hr 0.00 in0.0 mm
12:15 PM 47.3°F8.5°C 36.1°F2.3°C 65% 3.0 mph SSW4.8 kmh SSW 8.0 mph12.9 kmh 29.75 in1007.5 mb 0.00 in0.0 mm 0.00 in/hr0.0 mm/hr 0.00 in0.0 mm
12:10 PM 47.3°F8.5°C 36.1°F2.3°C 65% 3.0 mph ENE4.8 kmh ENE 7.0 mph11.3 kmh 29.74 in1007.1 mb 0.00 in0.0 mm 0.00 in/hr0.0 mm/hr 0.00 in0.0 mm
12:05 PM 47.4°F8.6°C 36.3°F2.4°C 65% 2.0 mph NNE3.2 kmh NNE 6.0 mph9.7 kmh 29.75 in1007.5 mb 0.00 in0.0 mm 0.00 in/hr0.0 mm/hr 0.00 in0.0 mm
12:00 PM 47.6°F8.7°C 36.4°F2.4°C 65% 2.0 mph ESE3.2 kmh ESE 8.0 mph12.9 kmh 29.73 in1006.8 mb 0.00 in0.0 mm 0.00 in/hr0.0 mm/hr 0.00 in0.0 mm
11:55 AM 47.8°F8.8°C 36.2°F2.3°C 64% 4.0 mph WNW6.4 kmh WNW 13.0 mph20.9 kmh 29.74 in1007.1 mb 0.00 in0.0 mm 0.00 in/hr0.0 mm/hr 0.00 in0.0 mm
11:50 AM 48.0°F8.9°C 36.4°F2.4°C 64% 3.0 mph WNW4.8 kmh WNW 4.0 mph6.4 kmh 29.74 in1007.1 mb 0.00 in0.0 mm 0.00 in/hr0.0 mm/hr 0.00 in0.0 mm
11:45 AM 48.0°F8.9°C 36.8°F2.7°C 65% 2.0 mph NNE3.2 kmh NNE 15.0 mph24.1 kmh 29.74 in1007.1 mb 0.00 in0.0 mm 0.00 in/hr0.0 mm/hr 0.00 in0.0 mm
11:40 AM 48.0°F8.9°C 37.2°F2.9°C 66% 4.0 mph NNW6.4 kmh NNW 9.0 mph14.5 kmh 29.73 in1006.8 mb 0.00 in0.0 mm 0.00 in/hr0.0 mm/hr 0.00 in0.0 mm
11:35 AM 46.9°F8.3°C 36.5°F2.5°C 67% 4.0 mph WNW6.4 kmh WNW 8.0 mph12.9 kmh 29.73 in1006.8 mb 0.00 in0.0 mm 0.00 in/hr0.0 mm/hr 0.00 in0.0 mm
11:30 AM 46.5°F8.1°C 35.8°F2.1°C 66% 5.0 mph WNW8.0 kmh WNW 11.0 mph17.7 kmh 29.73 in1006.8 mb 0.00 in0.0 mm 0.00 in/hr0.0 mm/hr 0.00 in0.0 mm
11:25 AM 46.4°F8.0°C 35.6°F2.0°C 66% 4.0 mph NNW6.4 kmh NNW 9.0 mph14.5 kmh 29.73 in1006.8 mb 0.00 in0.0 mm 0.00 in/hr0.0 mm/hr 0.00 in0.0 mm
11:20 AM 46.4°F8.0°C 36.0°F2.2°C 67% 6.0 mph WSW9.7 kmh WSW 8.0 mph12.9 kmh 29.73 in1006.8 mb 0.00 in0.0 mm 0.00 in/hr0.0 mm/hr 0.00 in0.0 mm
11:15 AM 46.2°F7.9°C 35.8°F2.1°C 67% 4.0 mph SSW6.4 kmh SSW 11.0 mph17.7 kmh 29.74 in1007.1 mb 0.00 in0.0 mm 0.00 in/hr0.0 mm/hr 0.00 in0.0 mm
11:10 AM 45.8°F7.7°C 35.5°F1.9°C 67% 4.0 mph WNW6.4 kmh WNW 10.0 mph16.1 kmh 29.74 in1007.1 mb 0.00 in0.0 mm 0.00 in/hr0.0 mm/hr 0.00 in0.0 mm
11:05 AM 45.8°F7.7°C 35.1°F1.7°C 66% 2.0 mph SSW3.2 kmh SSW 6.0 mph9.7 kmh 29.73 in1006.8 mb 0.00 in0.0 mm 0.00 in/hr0.0 mm/hr 0.00 in0.0 mm
11:00 AM 46.2°F7.9°C 35.4°F1.9°C 66% 5.0 mph ESE8.0 kmh ESE 11.0 mph17.7 kmh 29.73 in1006.8 mb 0.00 in0.0 mm 0.00 in/hr0.0 mm/hr 0.00 in0.0 mm
10:55 AM 46.4°F8.0°C 35.6°F2.0°C 66% 6.0 mph SSW9.7 kmh SSW 15.0 mph24.1 kmh 29.73 in1006.8 mb 0.00 in0.0 mm 0.00 in/hr0.0 mm/hr 0.00 in0.0 mm
10:50 AM 46.5°F8.1°C 35.8°F2.1°C 66% 4.0 mph SSW6.4 kmh SSW 9.0 mph14.5 kmh 29.73 in1006.8 mb 0.00 in0.0 mm 0.00 in/hr0.0 mm/hr 0.00 in0.0 mm
10:45 AM 46.4°F8.0°C 35.6°F2.0°C 66% 4.0 mph NNE6.4 kmh NNE 10.0 mph16.1 kmh 29.73 in1006.8 mb 0.00 in0.0 mm 0.00 in/hr0.0 mm/hr 0.00 in0.0 mm
10:40 AM 46.5°F8.1°C 36.2°F2.3°C 67% 4.0 mph WSW6.4 kmh WSW 9.0 mph14.5 kmh 29.73 in1006.8 mb 0.00 in0.0 mm 0.00 in/hr0.0 mm/hr 0.00 in0.0 mm
10:35 AM 46.5°F8.1°C 36.5°F2.5°C 68% 5.0 mph WSW8.0 kmh WSW 9.0 mph14.5 kmh 29.73 in1006.8 mb 0.00 in0.0 mm 0.00 in/hr0.0 mm/hr 0.00 in0.0 mm
10:30 AM 46.2°F7.9°C 36.2°F2.3°C 68% 8.0 mph WSW12.9 kmh WSW 11.0 mph17.7 kmh 29.73 in1006.8 mb 0.00 in0.0 mm 0.00 in/hr0.0 mm/hr 0.00 in0.0 mm
10:25 AM 45.5°F7.5°C 35.5°F1.9°C 68% 4.0 mph SW6.4 kmh SW 7.0 mph11.3 kmh 29.72 in1006.4 mb 0.00 in0.0 mm 0.00 in/hr0.0 mm/hr 0.00 in0.0 mm
10:20 AM 44.9°F7.2°C 35.0°F1.7°C 68% 4.0 mph SSW6.4 kmh SSW 15.0 mph24.1 kmh 29.72 in1006.4 mb 0.00 in0.0 mm 0.00 in/hr0.0 mm/hr 0.00 in0.0 mm
10:15 AM 44.9°F7.2°C 35.4°F1.9°C 69% 4.0 mph WNW6.4 kmh WNW 10.0 mph16.1 kmh 29.73 in1006.8 mb 0.00 in0.0 mm 0.00 in/hr0.0 mm/hr 0.00 in0.0 mm
10:10 AM 44.4°F6.9°C 34.8°F1.6°C 69% 2.0 mph WNW3.2 kmh WNW 8.0 mph12.9 kmh 29.73 in1006.8 mb 0.00 in0.0 mm 0.00 in/hr0.0 mm/hr 0.00 in0.0 mm
10:05 AM 44.4°F6.9°C 35.2°F1.8°C 70% 7.0 mph WSW11.3 kmh WSW 9.0 mph14.5 kmh 29.73 in1006.8 mb 0.00 in0.0 mm 0.00 in/hr0.0 mm/hr 0.00 in0.0 mm
10:00 AM 44.2°F6.8°C 35.0°F1.7°C 70% 3.0 mph NNW4.8 kmh NNW 5.0 mph8.0 kmh 29.73 in1006.8 mb 0.00 in0.0 mm 0.00 in/hr0.0 mm/hr 0.00 in0.0 mm
09:55 AM 44.0°F6.7°C 34.9°F1.6°C 70% 2.0 mph WNW3.2 kmh WNW 10.0 mph16.1 kmh 29.73 in1006.8 mb 0.00 in0.0 mm 0.00 in/hr0.0 mm/hr 0.00 in0.0 mm
09:50 AM 44.0°F6.7°C 35.2°F1.8°C 71% 4.0 mph WSW6.4 kmh WSW 9.0 mph14.5 kmh 29.73 in1006.8 mb 0.00 in0.0 mm 0.00 in/hr0.0 mm/hr 0.00 in0.0 mm
09:45 AM 43.8°F6.6°C 35.0°F1.7°C 71% 2.0 mph NNW3.2 kmh NNW 4.0 mph6.4 kmh 29.72 in1006.4 mb 0.00 in0.0 mm 0.00 in/hr0.0 mm/hr 0.00 in0.0 mm
09:40 AM 43.3°F6.3°C 34.9°F1.6°C 72% 2.0 mph WNW3.2 kmh WNW 4.0 mph6.4 kmh 29.72 in1006.4 mb 0.00 in0.0 mm 0.00 in/hr0.0 mm/hr 0.00 in0.0 mm
09:35 AM 43.1°F6.2°C 34.4°F1.3°C 71% 2.0 mph WNW3.2 kmh WNW 12.0 mph19.3 kmh 29.72 in1006.4 mb 0.00 in0.0 mm 0.00 in/hr0.0 mm/hr 0.00 in0.0 mm
09:30 AM 42.9°F6.1°C 34.2°F1.2°C 71% 4.0 mph 6.4 kmh 12.0 mph19.3 kmh 29.73 in1006.8 mb 0.00 in0.0 mm 0.00 in/hr0.0 mm/hr 0.00 in0.0 mm
09:25 AM 42.9°F6.1°C 34.2°F1.2°C 71% 2.0 mph WSW3.2 kmh WSW 8.0 mph12.9 kmh 29.72 in1006.4 mb 0.00 in0.0 mm 0.00 in/hr0.0 mm/hr 0.00 in0.0 mm
09:20 AM 42.9°F6.1°C 34.5°F1.4°C 72% 4.0 mph WNW6.4 kmh WNW 6.0 mph9.7 kmh 29.72 in1006.4 mb 0.00 in0.0 mm 0.00 in/hr0.0 mm/hr 0.00 in0.0 mm
09:15 AM 42.9°F6.1°C 34.5°F1.4°C 72% 2.0 mph SSE3.2 kmh SSE 4.0 mph6.4 kmh 29.71 in1006.1 mb 0.00 in0.0 mm 0.00 in/hr0.0 mm/hr 0.00 in0.0 mm
09:10 AM 42.9°F6.1°C 34.9°F1.6°C 73% 2.0 mph ESE3.2 kmh ESE 5.0 mph8.0 kmh 29.71 in1006.1 mb 0.00 in0.0 mm 0.00 in/hr0.0 mm/hr 0.00 in0.0 mm
09:05 AM 42.9°F6.1°C 35.2°F1.8°C 74% 3.0 mph WNW4.8 kmh WNW 5.0 mph8.0 kmh 29.72 in1006.4 mb 0.00 in0.0 mm 0.00 in/hr0.0 mm/hr 0.00 in0.0 mm
09:00 AM 42.8°F6.0°C 35.4°F1.9°C 75% 1.0 mph WNW1.6 kmh WNW 3.0 mph4.8 kmh 29.71 in1006.1 mb 0.00 in0.0 mm 0.00 in/hr0.0 mm/hr 0.00 in0.0 mm
08:55 AM 42.8°F6.0°C 35.4°F1.9°C 75% 2.0 mph WSW3.2 kmh WSW 4.0 mph6.4 kmh 29.71 in1006.1 mb 0.00 in0.0 mm 0.00 in/hr0.0 mm/hr 0.00 in0.0 mm
08:50 AM 42.4°F5.8°C 35.4°F1.9°C 76% 3.0 mph WNW4.8 kmh WNW 5.0 mph8.0 kmh 29.71 in1006.1 mb 0.00 in0.0 mm 0.00 in/hr0.0 mm/hr 0.00 in0.0 mm
08:45 AM 42.2°F5.7°C 34.9°F1.6°C 75% 1.0 mph WNW1.6 kmh WNW 6.0 mph9.7 kmh 29.71 in1006.1 mb 0.00 in0.0 mm 0.00 in/hr0.0 mm/hr 0.00 in0.0 mm
08:40 AM 42.2°F5.7°C 35.2°F1.8°C 76% 4.0 mph WSW6.4 kmh WSW 9.0 mph14.5 kmh 29.71 in1006.1 mb 0.00 in0.0 mm 0.00 in/hr0.0 mm/hr 0.00 in0.0 mm
08:35 AM 42.0°F5.6°C 34.7°F1.5°C 75% 3.0 mph ENE4.8 kmh ENE 6.0 mph9.7 kmh 29.71 in1006.1 mb 0.00 in0.0 mm 0.00 in/hr0.0 mm/hr 0.00 in0.0 mm
08:30 AM 42.0°F5.6°C 35.0°F1.7°C 76% 2.0 mph NNW3.2 kmh NNW 7.0 mph11.3 kmh 29.70 in1005.8 mb 0.00 in0.0 mm 0.00 in/hr0.0 mm/hr 0.00 in0.0 mm
08:25 AM 41.9°F5.5°C 34.8°F1.6°C 76% 4.0 mph SSE6.4 kmh SSE 11.0 mph17.7 kmh 29.70 in1005.8 mb 0.00 in0.0 mm 0.00 in/hr0.0 mm/hr 0.00 in0.0 mm
08:20 AM 41.9°F5.5°C 34.5°F1.4°C 75% 1.0 mph SSE1.6 kmh SSE 2.0 mph3.2 kmh 29.71 in1006.1 mb 0.00 in0.0 mm 0.00 in/hr0.0 mm/hr 0.00 in0.0 mm
08:15 AM 41.9°F5.5°C 34.5°F1.4°C 75% 4.0 mph SSE6.4 kmh SSE 7.0 mph11.3 kmh 29.71 in1006.1 mb 0.00 in0.0 mm 0.00 in/hr0.0 mm/hr 0.00 in0.0 mm
08:10 AM 41.9°F5.5°C 34.5°F1.4°C 75% 3.0 mph WSW4.8 kmh WSW 5.0 mph8.0 kmh 29.71 in1006.1 mb 0.00 in0.0 mm 0.00 in/hr0.0 mm/hr 0.00 in0.0 mm
08:05 AM 41.9°F5.5°C 34.5°F1.4°C 75% 1.0 mph NNE1.6 kmh NNE 2.0 mph3.2 kmh 29.70 in1005.8 mb 0.00 in0.0 mm 0.00 in/hr0.0 mm/hr 0.00 in0.0 mm
08:00 AM 41.9°F5.5°C 34.5°F1.4°C 75% 1.0 mph WNW1.6 kmh WNW 4.0 mph6.4 kmh 29.70 in1005.8 mb 0.00 in0.0 mm 0.00 in/hr0.0 mm/hr 0.00 in0.0 mm
07:55 AM 41.9°F5.5°C 34.2°F1.2°C 74% 2.0 mph ENE3.2 kmh ENE 8.0 mph12.9 kmh 29.70 in1005.8 mb 0.00 in0.0 mm 0.00 in/hr0.0 mm/hr 0.00 in0.0 mm
07:50 AM 41.9°F5.5°C 34.2°F1.2°C 74% 2.0 mph ESE3.2 kmh ESE 8.0 mph12.9 kmh 29.69 in1005.4 mb 0.00 in0.0 mm 0.00 in/hr0.0 mm/hr 0.00 in0.0 mm
07:45 AM 41.9°F5.5°C 34.2°F1.2°C 74% 2.0 mph ENE3.2 kmh ENE 9.0 mph14.5 kmh 29.69 in1005.4 mb 0.00 in0.0 mm 0.00 in/hr0.0 mm/hr 0.00 in0.0 mm
07:40 AM 41.9°F5.5°C 34.2°F1.2°C 74% 5.0 mph SSE8.0 kmh SSE 9.0 mph14.5 kmh 29.69 in1005.4 mb 0.00 in0.0 mm 0.00 in/hr0.0 mm/hr 0.00 in0.0 mm
07:35 AM 41.9°F5.5°C 34.2°F1.2°C 74% 2.0 mph WSW3.2 kmh WSW 5.0 mph8.0 kmh 29.69 in1005.4 mb 0.00 in0.0 mm 0.00 in/hr0.0 mm/hr 0.00 in0.0 mm
07:30 AM 42.0°F5.6°C 34.4°F1.3°C 74% 4.0 mph WSW6.4 kmh WSW 7.0 mph11.3 kmh 29.69 in1005.4 mb 0.00 in0.0 mm 0.00 in/hr0.0 mm/hr 0.00 in0.0 mm
07:25 AM 42.0°F5.6°C 34.0°F1.1°C 73% 2.0 mph SSW3.2 kmh SSW 7.0 mph11.3 kmh 29.69 in1005.4 mb 0.00 in0.0 mm 0.00 in/hr0.0 mm/hr 0.00 in0.0 mm
07:20 AM 42.0°F5.6°C 34.0°F1.1°C 73% 2.0 mph WSW3.2 kmh WSW 6.0 mph9.7 kmh 29.68 in1005.1 mb 0.00 in0.0 mm 0.00 in/hr0.0 mm/hr 0.00 in0.0 mm
07:15 AM 42.0°F5.6°C 34.0°F1.1°C 73% 3.0 mph WSW4.8 kmh WSW 6.0 mph9.7 kmh 29.68 in1005.1 mb 0.00 in0.0 mm 0.00 in/hr0.0 mm/hr 0.00 in0.0 mm
07:10 AM 42.0°F5.6°C 34.0°F1.1°C 73% 2.0 mph WNW3.2 kmh WNW 8.0 mph12.9 kmh 29.68 in1005.1 mb 0.00 in0.0 mm 0.00 in/hr0.0 mm/hr 0.00 in0.0 mm
07:05 AM 42.0°F5.6°C 34.0°F1.1°C 73% 4.0 mph WNW6.4 kmh WNW 7.0 mph11.3 kmh 29.67 in1004.7 mb 0.00 in0.0 mm 0.00 in/hr0.0 mm/hr 0.00 in0.0 mm
07:00 AM 42.2°F5.7°C 34.2°F1.2°C 73% 3.0 mph WSW4.8 kmh WSW 9.0 mph14.5 kmh 29.67 in1004.7 mb 0.00 in0.0 mm 0.00 in/hr0.0 mm/hr 0.00 in0.0 mm
06:55 AM 42.2°F5.7°C 34.5°F1.4°C 74% 3.0 mph SSE4.8 kmh SSE 12.0 mph19.3 kmh 29.67 in1004.7 mb 0.00 in0.0 mm 0.00 in/hr0.0 mm/hr 0.00 in0.0 mm
06:50 AM 42.2°F5.7°C 34.2°F1.2°C 73% 2.0 mph WNW3.2 kmh WNW 5.0 mph8.0 kmh 29.67 in1004.7 mb 0.00 in0.0 mm 0.00 in/hr0.0 mm/hr 0.00 in0.0 mm
06:45 AM 42.4°F5.8°C 34.7°F1.5°C 74% 4.0 mph NNW6.4 kmh NNW 7.0 mph11.3 kmh 29.66 in1004.4 mb 0.00 in0.0 mm 0.00 in/hr0.0 mm/hr 0.00 in0.0 mm
06:40 AM 42.4°F5.8°C 34.7°F1.5°C 74% 2.0 mph NNW3.2 kmh NNW 5.0 mph8.0 kmh 29.66 in1004.4 mb 0.00 in0.0 mm 0.00 in/hr0.0 mm/hr 0.00 in0.0 mm
06:35 AM 42.6°F5.9°C 34.9°F1.6°C 74% Calm Calm 6.0 mph9.7 kmh 29.66 in1004.4 mb 0.00 in0.0 mm 0.00 in/hr0.0 mm/hr 0.00 in0.0 mm
06:30 AM 42.6°F5.9°C 34.9°F1.6°C 74% 4.0 mph NNE6.4 kmh NNE 6.0 mph9.7 kmh 29.66 in1004.4 mb 0.00 in0.0 mm 0.00 in/hr0.0 mm/hr 0.00 in0.0 mm
06:25 AM 42.6°F5.9°C 34.9°F1.6°C 74% 2.0 mph SSE3.2 kmh SSE 4.0 mph6.4 kmh 29.65 in1004.1 mb 0.00 in0.0 mm 0.00 in/hr0.0 mm/hr 0.00 in0.0 mm
06:20 AM 42.8°F6.0°C 34.7°F1.5°C 73% 2.0 mph NNW3.2 kmh NNW 6.0 mph9.7 kmh 29.65 in1004.1 mb 0.00 in0.0 mm 0.00 in/hr0.0 mm/hr 0.00 in0.0 mm
06:15 AM 42.8°F6.0°C 34.7°F1.5°C 73% 1.0 mph SSE1.6 kmh SSE 3.0 mph4.8 kmh 29.65 in1004.1 mb 0.00 in0.0 mm 0.00 in/hr0.0 mm/hr 0.00 in0.0 mm
06:10 AM 42.8°F6.0°C 34.7°F1.5°C 73% 2.0 mph NNW3.2 kmh NNW 4.0 mph6.4 kmh 29.65 in1004.1 mb 0.00 in0.0 mm 0.00 in/hr0.0 mm/hr 0.00 in0.0 mm
06:05 AM 42.8°F6.0°C 35.0°F1.7°C 74% 4.0 mph NNW6.4 kmh NNW 4.0 mph6.4 kmh 29.64 in1003.7 mb 0.00 in0.0 mm 0.00 in/hr0.0 mm/hr 0.00 in0.0 mm
06:00 AM 42.8°F6.0°C 35.0°F1.7°C 74% 2.0 mph NNE3.2 kmh NNE 2.0 mph3.2 kmh 29.64 in1003.7 mb 0.00 in0.0 mm 0.00 in/hr0.0 mm/hr 0.00 in0.0 mm
05:55 AM 42.8°F6.0°C 35.0°F1.7°C 74% 3.0 mph SSW4.8 kmh SSW 6.0 mph9.7 kmh 29.64 in1003.7 mb 0.00 in0.0 mm 0.00 in/hr0.0 mm/hr 0.00 in0.0 mm
05:50 AM 42.8°F6.0°C 34.7°F1.5°C 73% 2.0 mph WSW3.2 kmh WSW 11.0 mph17.7 kmh 29.64 in1003.7 mb 0.00 in0.0 mm 0.00 in/hr0.0 mm/hr 0.00 in0.0 mm
05:45 AM 42.9°F6.1°C 35.2°F1.8°C 74% 3.0 mph NNW4.8 kmh NNW 4.0 mph6.4 kmh 29.64 in1003.7 mb 0.00 in0.0 mm 0.00 in/hr0.0 mm/hr 0.00 in0.0 mm
05:40 AM 42.9°F6.1°C 34.9°F1.6°C 73% 2.0 mph WNW3.2 kmh WNW 4.0 mph6.4 kmh 29.63 in1003.4 mb 0.00 in0.0 mm 0.00 in/hr0.0 mm/hr 0.00 in0.0 mm
05:35 AM 42.9°F6.1°C 34.9°F1.6°C 73% 4.0 mph NNW6.4 kmh NNW 9.0 mph14.5 kmh 29.64 in1003.7 mb 0.00 in0.0 mm 0.00 in/hr0.0 mm/hr 0.00 in0.0 mm
05:30 AM 43.1°F6.2°C 35.1°F1.7°C 73% 2.0 mph SSW3.2 kmh SSW 4.0 mph6.4 kmh 29.63 in1003.4 mb 0.00 in0.0 mm 0.00 in/hr0.0 mm/hr 0.00 in0.0 mm
05:25 AM 43.1°F6.2°C 34.7°F1.5°C 72% 2.0 mph WSW3.2 kmh WSW 5.0 mph8.0 kmh 29.63 in1003.4 mb 0.00 in0.0 mm 0.00 in/hr0.0 mm/hr 0.00 in0.0 mm
05:20 AM 43.3°F6.3°C 34.5°F1.4°C 71% 2.0 mph WSW3.2 kmh WSW 5.0 mph8.0 kmh 29.63 in1003.4 mb 0.00 in0.0 mm 0.00 in/hr0.0 mm/hr 0.00 in0.0 mm
05:15 AM 43.3°F6.3°C 34.5°F1.4°C 71% 2.0 mph WNW3.2 kmh WNW 4.0 mph6.4 kmh 29.63 in1003.4 mb 0.00 in0.0 mm 0.00 in/hr0.0 mm/hr 0.00 in0.0 mm
05:10 AM 43.3°F6.3°C 34.5°F1.4°C 71% 3.0 mph NNE4.8 kmh NNE 6.0 mph9.7 kmh 29.63 in1003.4 mb 0.00 in0.0 mm 0.00 in/hr0.0 mm/hr 0.00 in0.0 mm
05:05 AM 43.3°F6.3°C 34.5°F1.4°C 71% 2.0 mph WNW3.2 kmh WNW 11.0 mph17.7 kmh 29.63 in1003.4 mb 0.00 in0.0 mm 0.00 in/hr0.0 mm/hr 0.00 in0.0 mm
05:00 AM 43.3°F6.3°C 34.5°F1.4°C 71% 3.0 mph ENE4.8 kmh ENE 8.0 mph12.9 kmh 29.63 in1003.4 mb 0.00 in0.0 mm 0.00 in/hr0.0 mm/hr 0.00 in0.0 mm
04:55 AM 43.3°F6.3°C 34.5°F1.4°C 71% 4.0 mph WNW6.4 kmh WNW 6.0 mph9.7 kmh 29.63 in1003.4 mb 0.00 in0.0 mm 0.00 in/hr0.0 mm/hr 0.00 in0.0 mm
04:50 AM 43.5°F6.4°C 34.7°F1.5°C 71% 2.0 mph WSW3.2 kmh WSW 8.0 mph12.9 kmh 29.63 in1003.4 mb 0.00 in0.0 mm 0.00 in/hr0.0 mm/hr 0.00 in0.0 mm
04:45 AM 43.5°F6.4°C 34.3°F1.3°C 70% 1.0 mph WNW1.6 kmh WNW 6.0 mph9.7 kmh 29.63 in1003.4 mb 0.00 in0.0 mm 0.00 in/hr0.0 mm/hr 0.00 in0.0 mm
04:40 AM 43.7°F6.5°C 34.2°F1.2°C 69% 4.0 mph WSW6.4 kmh WSW 8.0 mph12.9 kmh 29.63 in1003.4 mb 0.00 in0.0 mm 0.00 in/hr0.0 mm/hr 0.00 in0.0 mm
04:35 AM 43.7°F6.5°C 34.2°F1.2°C 69% 3.0 mph WNW4.8 kmh WNW 6.0 mph9.7 kmh 29.63 in1003.4 mb 0.00 in0.0 mm 0.00 in/hr0.0 mm/hr 0.00 in0.0 mm
04:30 AM 43.7°F6.5°C 34.2°F1.2°C 69% 4.0 mph SSW6.4 kmh SSW 8.0 mph12.9 kmh 29.63 in1003.4 mb 0.00 in0.0 mm 0.00 in/hr0.0 mm/hr 0.00 in0.0 mm
04:25 AM 43.7°F6.5°C 34.2°F1.2°C 69% 4.0 mph NNW6.4 kmh NNW 8.0 mph12.9 kmh 29.63 in1003.4 mb 0.00 in0.0 mm 0.00 in/hr0.0 mm/hr 0.00 in0.0 mm
04:20 AM 43.7°F6.5°C 34.2°F1.2°C 69% 2.0 mph WSW3.2 kmh WSW 6.0 mph9.7 kmh 29.63 in1003.4 mb 0.00 in0.0 mm 0.00 in/hr0.0 mm/hr 0.00 in0.0 mm
04:15 AM 43.7°F6.5°C 34.2°F1.2°C 69% 2.0 mph WSW3.2 kmh WSW 10.0 mph16.1 kmh 29.63 in1003.4 mb 0.00 in0.0 mm 0.00 in/hr0.0 mm/hr 0.00 in0.0 mm
04:10 AM 43.7°F6.5°C 34.2°F1.2°C 69% 4.0 mph NNW6.4 kmh NNW 6.0 mph9.7 kmh 29.63 in1003.4 mb 0.00 in0.0 mm 0.00 in/hr0.0 mm/hr 0.00 in0.0 mm
04:05 AM 43.7°F6.5°C 34.2°F1.2°C 69% 3.0 mph WSW4.8 kmh WSW 4.0 mph6.4 kmh 29.62 in1003.0 mb 0.00 in0.0 mm 0.00 in/hr0.0 mm/hr 0.00 in0.0 mm
04:00 AM 43.7°F6.5°C 34.2°F1.2°C 69% 4.0 mph SSW6.4 kmh SSW 8.0 mph12.9 kmh 29.62 in1003.0 mb 0.00 in0.0 mm 0.00 in/hr0.0 mm/hr 0.00 in0.0 mm
03:55 AM 43.7°F6.5°C 34.2°F1.2°C 69% 3.0 mph ENE4.8 kmh ENE 7.0 mph11.3 kmh 29.62 in1003.0 mb 0.00 in0.0 mm 0.00 in/hr0.0 mm/hr 0.00 in0.0 mm
03:50 AM 43.7°F6.5°C 34.2°F1.2°C 69% 2.0 mph WSW3.2 kmh WSW 7.0 mph11.3 kmh 29.62 in1003.0 mb 0.00 in0.0 mm 0.00 in/hr0.0 mm/hr 0.00 in0.0 mm
03:45 AM 43.7°F6.5°C 34.2°F1.2°C 69% 2.0 mph NNW3.2 kmh NNW 7.0 mph11.3 kmh 29.63 in1003.4 mb 0.00 in0.0 mm 0.00 in/hr0.0 mm/hr 0.00 in0.0 mm
03:40 AM 43.7°F6.5°C 34.5°F1.4°C 70% 3.0 mph WSW4.8 kmh WSW 7.0 mph11.3 kmh 29.62 in1003.0 mb 0.00 in0.0 mm 0.00 in/hr0.0 mm/hr 0.00 in0.0 mm
03:35 AM 43.5°F6.4°C 34.0°F1.1°C 69% 3.0 mph SSW4.8 kmh SSW 4.0 mph6.4 kmh 29.62 in1003.0 mb 0.00 in0.0 mm 0.00 in/hr0.0 mm/hr 0.00 in0.0 mm
03:30 AM 43.5°F6.4°C 34.3°F1.3°C 70% 2.0 mph SSE3.2 kmh SSE 6.0 mph9.7 kmh 29.63 in1003.4 mb 0.00 in0.0 mm 0.00 in/hr0.0 mm/hr 0.00 in0.0 mm
03:25 AM 43.7°F6.5°C 34.5°F1.4°C 70% 1.0 mph SSE1.6 kmh SSE 4.0 mph6.4 kmh 29.63 in1003.4 mb 0.00 in0.0 mm 0.00 in/hr0.0 mm/hr 0.00 in0.0 mm
03:20 AM 43.7°F6.5°C 34.2°F1.2°C 69% Calm Calm 2.0 mph3.2 kmh 29.62 in1003.0 mb 0.00 in0.0 mm 0.00 in/hr0.0 mm/hr 0.00 in0.0 mm
03:15 AM 43.7°F6.5°C 33.8°F1.0°C 68% 1.0 mph ESE1.6 kmh ESE 3.0 mph4.8 kmh 29.62 in1003.0 mb 0.00 in0.0 mm 0.00 in/hr0.0 mm/hr 0.00 in0.0 mm
03:10 AM 43.7°F6.5°C 33.4°F0.8°C 67% Calm Calm 3.0 mph4.8 kmh 29.63 in1003.4 mb 0.00 in0.0 mm 0.00 in/hr0.0 mm/hr 0.00 in0.0 mm
03:05 AM 43.7°F6.5°C 33.4°F0.8°C 67% 2.0 mph WSW3.2 kmh WSW 7.0 mph11.3 kmh 29.62 in1003.0 mb 0.00 in0.0 mm 0.00 in/hr0.0 mm/hr 0.00 in0.0 mm
03:00 AM 43.7°F6.5°C 33.8°F1.0°C 68% 1.0 mph SSE1.6 kmh SSE 4.0 mph6.4 kmh 29.63 in1003.4 mb 0.00 in0.0 mm 0.00 in/hr0.0 mm/hr 0.00 in0.0 mm
02:55 AM 43.5°F6.4°C 33.6°F0.9°C 68% 2.0 mph SSW3.2 kmh SSW 4.0 mph6.4 kmh 29.62 in1003.0 mb 0.00 in0.0 mm 0.00 in/hr0.0 mm/hr 0.00 in0.0 mm
02:50 AM 43.7°F6.5°C 33.4°F0.8°C 67% 1.0 mph SSE1.6 kmh SSE 4.0 mph6.4 kmh 29.62 in1003.0 mb 0.00 in0.0 mm 0.00 in/hr0.0 mm/hr 0.00 in0.0 mm
02:45 AM 43.7°F6.5°C 33.4°F0.8°C 67% 2.0 mph WSW3.2 kmh WSW 4.0 mph6.4 kmh 29.62 in1003.0 mb 0.00 in0.0 mm 0.00 in/hr0.0 mm/hr 0.00 in0.0 mm
02:40 AM 43.7°F6.5°C 33.4°F0.8°C 67% 2.0 mph SSW3.2 kmh SSW 4.0 mph6.4 kmh 29.63 in1003.4 mb 0.00 in0.0 mm 0.00 in/hr0.0 mm/hr 0.00 in0.0 mm
02:35 AM 43.8°F6.6°C 33.6°F0.9°C 67% 4.0 mph SSW6.4 kmh SSW 6.0 mph9.7 kmh 29.63 in1003.4 mb 0.00 in0.0 mm 0.00 in/hr0.0 mm/hr 0.00 in0.0 mm
02:30 AM 43.8°F6.6°C 34.0°F1.1°C 68% 2.0 mph SSE3.2 kmh SSE 8.0 mph12.9 kmh 29.62 in1003.0 mb 0.00 in0.0 mm 0.00 in/hr0.0 mm/hr 0.00 in0.0 mm
02:25 AM 44.2°F6.8°C 35.0°F1.7°C 70% 2.0 mph SSW3.2 kmh SSW 3.0 mph4.8 kmh 29.63 in1003.4 mb 0.00 in0.0 mm 0.00 in/hr0.0 mm/hr 0.00 in0.0 mm
02:20 AM 44.4°F6.9°C 34.8°F1.6°C 69% 2.0 mph WSW3.2 kmh WSW 3.0 mph4.8 kmh 29.63 in1003.4 mb 0.00 in0.0 mm 0.00 in/hr0.0 mm/hr 0.00 in0.0 mm
02:15 AM 44.4°F6.9°C 34.8°F1.6°C 69% 3.0 mph NNW4.8 kmh NNW 11.0 mph17.7 kmh 29.63 in1003.4 mb 0.00 in0.0 mm 0.00 in/hr0.0 mm/hr 0.00 in0.0 mm
02:10 AM 44.6°F7.0°C 34.7°F1.5°C 68% 3.0 mph WNW4.8 kmh WNW 5.0 mph8.0 kmh 29.63 in1003.4 mb 0.00 in0.0 mm 0.00 in/hr0.0 mm/hr 0.00 in0.0 mm
02:05 AM 44.7°F7.1°C 34.5°F1.4°C 67% 2.0 mph WSW3.2 kmh WSW 2.0 mph3.2 kmh 29.62 in1003.0 mb 0.00 in0.0 mm 0.00 in/hr0.0 mm/hr 0.00 in0.0 mm
02:00 AM 44.7°F7.1°C 34.1°F1.2°C 66% 2.0 mph NNE3.2 kmh NNE 6.0 mph9.7 kmh 29.63 in1003.4 mb 0.00 in0.0 mm 0.00 in/hr0.0 mm/hr 0.00 in0.0 mm
01:55 AM 44.7°F7.1°C 34.5°F1.4°C 67% 2.0 mph WNW3.2 kmh WNW 5.0 mph8.0 kmh 29.62 in1003.0 mb 0.00 in0.0 mm 0.00 in/hr0.0 mm/hr 0.00 in0.0 mm
01:50 AM 44.7°F7.1°C 34.8°F1.6°C 68% 3.0 mph WNW4.8 kmh WNW 7.0 mph11.3 kmh 29.63 in1003.4 mb 0.00 in0.0 mm 0.00 in/hr0.0 mm/hr 0.00 in0.0 mm
01:45 AM 44.7°F7.1°C 34.8°F1.6°C 68% 3.0 mph NNW4.8 kmh NNW 8.0 mph12.9 kmh 29.62 in1003.0 mb 0.00 in0.0 mm 0.00 in/hr0.0 mm/hr 0.00 in0.0 mm
01:40 AM 44.9°F7.2°C 35.0°F1.7°C 68% 3.0 mph WSW4.8 kmh WSW 4.0 mph6.4 kmh 29.62 in1003.0 mb 0.00 in0.0 mm 0.00 in/hr0.0 mm/hr 0.00 in0.0 mm
01:35 AM 44.9°F7.2°C 35.0°F1.7°C 68% 3.0 mph SSW4.8 kmh SSW 8.0 mph12.9 kmh 29.62 in1003.0 mb 0.00 in0.0 mm 0.00 in/hr0.0 mm/hr 0.00 in0.0 mm
01:30 AM 45.1°F7.3°C 35.5°F1.9°C 69% 4.0 mph NNW6.4 kmh NNW 6.0 mph9.7 kmh 29.62 in1003.0 mb 0.00 in0.0 mm 0.00 in/hr0.0 mm/hr 0.00 in0.0 mm
01:25 AM 44.9°F7.2°C 35.0°F1.7°C 68% 4.0 mph WNW6.4 kmh WNW 9.0 mph14.5 kmh 29.63 in1003.4 mb 0.00 in0.0 mm 0.00 in/hr0.0 mm/hr 0.00 in0.0 mm
01:20 AM 44.9°F7.2°C 35.0°F1.7°C 68% 4.0 mph WSW6.4 kmh WSW 8.0 mph12.9 kmh 29.63 in1003.4 mb 0.00 in0.0 mm 0.00 in/hr0.0 mm/hr 0.00 in0.0 mm
01:15 AM 44.9°F7.2°C 35.0°F1.7°C 68% 4.0 mph NNE6.4 kmh NNE 8.0 mph12.9 kmh 29.62 in1003.0 mb 0.00 in0.0 mm 0.00 in/hr0.0 mm/hr 0.00 in0.0 mm
01:10 AM 45.3°F7.4°C 35.3°F1.8°C 68% 2.0 mph WNW3.2 kmh WNW 6.0 mph9.7 kmh 29.62 in1003.0 mb 0.00 in0.0 mm 0.00 in/hr0.0 mm/hr 0.00 in0.0 mm
01:05 AM 45.5°F7.5°C 35.1°F1.7°C 67% 4.0 mph SSE6.4 kmh SSE 8.0 mph12.9 kmh 29.61 in1002.7 mb 0.00 in0.0 mm 0.00 in/hr0.0 mm/hr 0.00 in0.0 mm
01:00 AM 46.0°F7.8°C 36.0°F2.2°C 68% 3.0 mph SSW4.8 kmh SSW 8.0 mph12.9 kmh 29.61 in1002.7 mb 0.00 in0.0 mm 0.00 in/hr0.0 mm/hr 0.00 in0.0 mm
12:55 AM 46.2°F7.9°C 36.2°F2.3°C 68% 2.0 mph WNW3.2 kmh WNW 8.0 mph12.9 kmh 29.62 in1003.0 mb 0.00 in0.0 mm 0.00 in/hr0.0 mm/hr 0.00 in0.0 mm
12:50 AM 46.5°F8.1°C 36.9°F2.7°C 69% 2.0 mph ESE3.2 kmh ESE 7.0 mph11.3 kmh 29.61 in1002.7 mb 0.00 in0.0 mm 0.00 in/hr0.0 mm/hr 0.00 in0.0 mm
12:45 AM 46.9°F8.3°C 37.6°F3.1°C 70% 2.0 mph WNW3.2 kmh WNW 11.0 mph17.7 kmh 29.62 in1003.0 mb 0.00 in0.0 mm 0.00 in/hr0.0 mm/hr 0.00 in0.0 mm
12:40 AM 47.1°F8.4°C 38.5°F3.6°C 72% 2.0 mph ENE3.2 kmh ENE 5.0 mph8.0 kmh 29.62 in1003.0 mb 0.00 in0.0 mm 0.00 in/hr0.0 mm/hr 0.00 in0.0 mm
12:35 AM 47.3°F8.5°C 38.7°F3.7°C 72% 2.0 mph SSW3.2 kmh SSW 6.0 mph9.7 kmh 29.62 in1003.0 mb 0.00 in0.0 mm 0.00 in/hr0.0 mm/hr 0.00 in0.0 mm
12:30 AM 47.6°F8.7°C 38.7°F3.7°C 71% 2.0 mph WNW3.2 kmh WNW 6.0 mph9.7 kmh 29.61 in1002.7 mb 0.00 in0.0 mm 0.00 in/hr0.0 mm/hr 0.00 in0.0 mm
12:25 AM 47.8°F8.8°C 38.8°F3.8°C 71% 4.0 mph WSW6.4 kmh WSW 7.0 mph11.3 kmh 29.61 in1002.7 mb 0.00 in0.0 mm 0.00 in/hr0.0 mm/hr 0.00 in0.0 mm
12:20 AM 48.3°F9.1°C 39.0°F3.9°C 70% 4.0 mph WNW6.4 kmh WNW 8.0 mph12.9 kmh 29.61 in1002.7 mb 0.00 in0.0 mm 0.00 in/hr0.0 mm/hr 0.00 in0.0 mm
12:15 AM 48.5°F9.2°C 39.5°F4.2°C 71% 4.0 mph NNW6.4 kmh NNW 8.0 mph12.9 kmh 29.61 in1002.7 mb 0.00 in0.0 mm 0.00 in/hr0.0 mm/hr 0.00 in0.0 mm
12:10 AM 48.9°F9.4°C 39.9°F4.4°C 71% 2.0 mph NNW3.2 kmh NNW 11.0 mph17.7 kmh 29.62 in1003.0 mb 0.00 in0.0 mm 0.00 in/hr0.0 mm/hr 0.00 in0.0 mm
12:05 AM 49.4°F9.7°C 40.8°F4.9°C 72% 4.0 mph WSW6.4 kmh WSW 11.0 mph17.7 kmh 29.62 in1003.0 mb 0.00 in0.0 mm 0.00 in/hr0.0 mm/hr 0.00 in0.0 mm
12:00 AM 49.4°F9.7°C 40.8°F4.9°C 72% 4.0 mph WSW6.4 kmh WSW 11.0 mph17.7 kmh 29.61 in1002.7 mb 0.00 in0.0 mm 0.00 in/hr0.0 mm/hr 0.06 in1.5 mm